Pintail — WDF5177 — position and weather

sailwx.info

Track history (hours):
 
Tides and Currents Weather Stations Pressure Air Temp Water Temp Dewpoint Dewpoint Depression Visibility Wind Speed Wind Dir Waves Ship Positions

Pintail

Owner: Pintail Marine Services, Inc, Friday Harbor, WA. More information available from US FCC via Universal Licensing System and Coast Guard Vessel Documentation Center.

Last reported at 2017-Aug-16 19:30 UTC. Time now 2017-Aug-16 19:48 UTC.
Position N 48°34' W 122°53'.

Length 19 m.

Type: Towing. MMSI: 367460260.

Date/timePositionNaut miles runAvg speedWind from/ knotsBaromVisibWave heightAir tempDewpointWater temp
2017-Aug-16 19:30N 48°34' W 122°53'3 5.7
2017-Aug-16 19:00N 48°33' W 122°50'3 5.8
2017-Aug-16 18:29N 48°31' W 122°46'1 0.3
2017-Aug-16 15:59N 48°31' W 122°45'3 5.4
2017-Aug-16 15:25N 48°32' W 122°49'3 5.8
2017-Aug-16 14:54N 48°34' W 122°52'2 5.2
2017-Aug-16 14:30N 48°33' W 122°55'3 5.9
2017-Aug-16 14:00N 48°32' W 122°59'1 1.3
2017-Aug-16 13:28N 48°32' W 122°60'0 0.0
2017-Aug-16 12:58N 48°32' W 122°60'0 0.0
2017-Aug-16 12:28N 48°32' W 122°60'0 0.0
2017-Aug-16 11:58N 48°32' W 122°60'0 0.0
2017-Aug-16 11:28N 48°32' W 122°60'0 0.0
2017-Aug-16 10:58N 48°32' W 122°60'0 0.0
2017-Aug-16 10:28N 48°32' W 122°60'0 0.0
2017-Aug-16 09:58N 48°32' W 122°60'0 0.0
2017-Aug-16 09:28N 48°32' W 122°60'0 0.0
2017-Aug-16 08:58N 48°32' W 122°60'0 0.0
2017-Aug-16 08:25N 48°32' W 122°60'0 0.0
2017-Aug-16 07:58N 48°32' W 122°60'0 0.0
2017-Aug-16 07:28N 48°32' W 122°60'0 0.0
2017-Aug-16 06:55N 48°32' W 122°60'0 0.0
2017-Aug-16 06:28N 48°32' W 122°60'0 0.0
2017-Aug-16 05:58N 48°32' W 122°60'0 0.0
2017-Aug-16 05:28N 48°32' W 122°60'0 0.0
2017-Aug-16 04:58N 48°32' W 122°60'0 0.0
2017-Aug-16 04:28N 48°32' W 122°60'0 0.0
2017-Aug-16 03:55N 48°32' W 122°60'0 0.0
2017-Aug-16 03:28N 48°32' W 122°60'0 0.0
2017-Aug-16 02:58N 48°32' W 122°60'0 0.0
2017-Aug-16 02:28N 48°32' W 122°60'0 0.0
2017-Aug-16 01:58N 48°32' W 122°60'0 0.0
2017-Aug-16 01:28N 48°32' W 122°60'2 0.9
2017-Aug-15 23:12N 48°34' W 123°01'1 4.9
2017-Aug-15 23:00N 48°33' W 123°00'1 2.3
2017-Aug-15 22:30N 48°32' W 123°00'0 0.0
2017-Aug-15 22:00N 48°32' W 123°00'2 3.5
2017-Aug-15 21:29N 48°32' W 122°57'3 5.8
2017-Aug-15 21:00N 48°34' W 122°54'1 2.8
2017-Aug-15 20:30N 48°33' W 122°56'3 5.9
2017-Aug-15 20:00N 48°32' W 122°60'0 0.5
2017-Aug-15 19:28N 48°32' W 122°60'0 0.0
2017-Aug-15 18:58N 48°32' W 122°60'0 0.0
2017-Aug-15 18:28N 48°32' W 122°60'0 0.0
2017-Aug-15 17:55N 48°32' W 122°60'0 0.0
2017-Aug-15 17:28N 48°32' W 122°60'0 0.0
2017-Aug-15 16:58N 48°32' W 122°60'0 0.0
2017-Aug-15 16:30N 48°32' W 122°60'0 0.0
2017-Aug-15 16:00N 48°32' W 122°60'0 0.0
2017-Aug-15 15:31N 48°32' W 122°60'0 0.0
2017-Aug-15 14:58N 48°32' W 122°60'0 0.0
2017-Aug-15 14:24N 48°32' W 122°60'0 0.0
2017-Aug-15 14:01N 48°32' W 122°60'0 0.0
2017-Aug-15 13:31N 48°32' W 122°60'0 0.0
2017-Aug-15 12:58N 48°32' W 122°60'0 0.0
2017-Aug-15 12:31N 48°32' W 122°60'0 0.0
2017-Aug-15 11:58N 48°32' W 122°60'0 0.0
2017-Aug-15 11:31N 48°32' W 122°60'0 0.0
2017-Aug-15 10:58N 48°32' W 122°60'0 0.0
2017-Aug-15 10:28N 48°32' W 122°60'0 0.0
2017-Aug-15 10:01N 48°32' W 122°60'0 0.0
2017-Aug-15 09:28N 48°32' W 122°60'0 0.0
2017-Aug-15 08:58N 48°32' W 122°60'0 0.0
2017-Aug-15 08:28N 48°32' W 122°60'0 0.0
2017-Aug-15 07:58N 48°32' W 122°60'0 0.0
2017-Aug-15 07:22N 48°32' W 122°60'0 0.0
2017-Aug-15 06:58N 48°32' W 122°60'0 0.0
2017-Aug-15 06:28N 48°32' W 122°60'0 0.0
2017-Aug-15 05:58N 48°32' W 122°60'0 0.0
2017-Aug-15 05:28N 48°32' W 122°60'0 0.0
2017-Aug-15 04:58N 48°32' W 122°60'0 0.0
2017-Aug-15 04:28N 48°32' W 122°60'0 0.2
2017-Aug-15 04:00N 48°32' W 122°60'3 5.4
2017-Aug-15 03:30N 48°33' W 122°56'3 5.0
2017-Aug-15 02:54N 48°34' W 122°52'2 5.9
2017-Aug-15 02:30N 48°33' W 122°50'4 6.1
2017-Aug-15 01:54N 48°31' W 122°45'2 0.9
2017-Aug-14 23:20N 48°32' W 122°48'2 5.9
2017-Aug-14 22:59N 48°33' W 122°51'2 5.0
2017-Aug-14 22:30N 48°34' W 122°54'3 5.9
2017-Aug-14 22:00N 48°33' W 122°58'2 3.5
2017-Aug-14 21:30N 48°32' W 123°00'0 0.3
2017-Aug-14 21:00N 48°32' W 122°60'2 4.7
2017-Aug-14 20:30N 48°33' W 122°57'3 6.0
2017-Aug-14 20:01N 48°34' W 122°53'3 5.8
2017-Aug-14 19:30N 48°32' W 122°49'3 5.3
2017-Aug-14 18:59N 48°32' W 122°45'1 0.3
2017-Aug-14 16:24N 48°31' W 122°45'2 5.6
2017-Aug-14 15:59N 48°32' W 122°49'3 5.7
2017-Aug-14 15:30N 48°34' W 122°52'1 2.3
2017-Aug-14 15:00N 48°33' W 122°53'3 5.4
2017-Aug-14 14:30N 48°32' W 122°57'2 4.0
2017-Aug-14 14:00N 48°32' W 123°00'0 0.2
2017-Aug-14 13:28N 48°32' W 122°60'0 0.0
2017-Aug-14 12:58N 48°32' W 122°60'0 0.0
2017-Aug-14 12:28N 48°32' W 122°60'0 0.0
2017-Aug-14 11:58N 48°32' W 122°60'0 0.0
2017-Aug-14 11:28N 48°32' W 122°60'0 0.0
2017-Aug-14 10:55N 48°32' W 122°60'0 0.0
2017-Aug-14 10:28N 48°32' W 122°60'0 0.0
2017-Aug-14 09:58N 48°32' W 122°60'0 0.0
2017-Aug-14 09:28N 48°32' W 122°60'0 0.0
2017-Aug-14 08:58N 48°32' W 122°60'0 0.0
2017-Aug-14 08:28N 48°32' W 122°60'0 0.0
2017-Aug-14 07:55N 48°32' W 122°60'0 0.0
2017-Aug-14 07:25N 48°32' W 122°60'0 0.0
2017-Aug-14 06:58N 48°32' W 122°60'0 0.0
2017-Aug-14 06:28N 48°32' W 122°60'0 0.0
2017-Aug-14 05:58N 48°32' W 122°60'0 0.0
2017-Aug-14 05:25N 48°32' W 122°60'0 0.0
2017-Aug-14 04:58N 48°32' W 122°60'0 0.0
2017-Aug-14 04:25N 48°32' W 122°60'0 0.0
2017-Aug-14 03:58N 48°32' W 122°60'0 0.0
2017-Aug-14 03:25N 48°32' W 122°60'0 0.0
2017-Aug-14 02:55N 48°32' W 122°60'0 0.0
2017-Aug-14 02:28N 48°32' W 122°60'0 0.0
2017-Aug-14 01:58N 48°32' W 122°60'0 0.0
2017-Aug-14 01:28N 48°32' W 122°60'0 0.0
2017-Aug-14 00:58N 48°32' W 122°60'0 0.0
2017-Aug-14 00:28N 48°32' W 122°60'0 0.0
2017-Aug-13 23:58N 48°32' W 122°60'0 0.0
2017-Aug-13 23:28N 48°32' W 122°60'0 0.0
2017-Aug-13 22:58N 48°32' W 122°60'0 0.0
2017-Aug-13 22:25N 48°32' W 122°60'0 0.0
2017-Aug-13 21:58N 48°32' W 122°60'0 0.0
2017-Aug-13 21:28N 48°32' W 122°60'0 0.0
2017-Aug-13 20:58N 48°32' W 122°60'0 0.0
2017-Aug-13 20:28N 48°32' W 122°60'0 0.0
2017-Aug-13 19:55N 48°32' W 122°60'0 0.0
2017-Aug-13 19:30N 48°32' W 122°60'1 1.1
2017-Aug-13 19:00N 48°32' W 122°60'3 2.7
2017-Aug-13 17:53N 48°35' W 123°01'2 5.5
2017-Aug-13 17:29N 48°33' W 123°00'1 2.2
2017-Aug-13 16:52N 48°32' W 122°60'0 0.0
2017-Aug-13 16:28N 48°32' W 122°60'0 0.0
2017-Aug-13 15:58N 48°32' W 122°60'0 0.0
2017-Aug-13 15:28N 48°32' W 122°60'0 0.0
2017-Aug-13 14:58N 48°32' W 122°60'0 0.0
2017-Aug-13 14:28N 48°32' W 122°60'0 0.0
2017-Aug-13 13:58N 48°32' W 122°60'0 0.0
2017-Aug-13 13:28N 48°32' W 122°60'0 0.0
2017-Aug-13 12:58N 48°32' W 122°60'0 0.0
2017-Aug-13 12:28N 48°32' W 122°60'0 0.0
2017-Aug-13 11:55N 48°32' W 122°60'0 0.0
2017-Aug-13 11:28N 48°32' W 122°60'0 0.0
2017-Aug-13 10:58N 48°32' W 122°60'0 0.0
2017-Aug-13 10:25N 48°32' W 122°60'0 0.0
2017-Aug-13 09:58N 48°32' W 122°60'0 0.0
2017-Aug-13 09:28N 48°32' W 122°60'0 0.0
2017-Aug-13 08:55N 48°32' W 122°60'0 0.0
2017-Aug-13 08:28N 48°32' W 122°60'0 0.0
2017-Aug-13 07:58N 48°32' W 122°60'0 0.0
2017-Aug-13 07:28N 48°32' W 122°60'0 0.0
2017-Aug-13 06:58N 48°32' W 122°60'0 0.0
2017-Aug-13 06:22N 48°32' W 122°60'0 0.0
2017-Aug-13 05:58N 48°32' W 122°60'0 0.0
2017-Aug-13 05:28N 48°32' W 122°60'0 0.1
2017-Aug-13 05:00N 48°32' W 122°60'1 2.4
2017-Aug-13 04:30N 48°31' W 122°58'2 3.2
2017-Aug-13 03:59N 48°30' W 123°01'1 2.2
2017-Aug-13 03:30N 48°31' W 122°59'1 2.8
2017-Aug-13 03:00N 48°32' W 122°60'0 0.7
2017-Aug-13 02:28N 48°32' W 122°60'0 0.0
2017-Aug-13 01:58N 48°32' W 122°60'0 0.0
2017-Aug-13 01:28N 48°32' W 122°60'0 0.0
2017-Aug-13 00:58N 48°32' W 122°60'0 0.0
2017-Aug-13 00:28N 48°32' W 122°60'0 0.0
2017-Aug-12 23:55N 48°32' W 122°60'0 0.0
2017-Aug-12 23:25N 48°32' W 122°60'0 0.0
2017-Aug-12 22:58N 48°32' W 122°60'0 0.0
2017-Aug-12 22:28N 48°32' W 122°60'0 0.0
2017-Aug-12 21:58N 48°32' W 122°60'0 0.0
2017-Aug-12 21:25N 48°32' W 122°60'0 0.0
2017-Aug-12 20:58N 48°32' W 122°60'0 0.0
2017-Aug-12 20:28N 48°32' W 122°60'0 0.0
2017-Aug-12 19:58N 48°32' W 122°60'0 0.0
2017-Aug-12 19:25N 48°32' W 122°60'0 0.0
2017-Aug-12 18:58N 48°32' W 122°60'0 0.0
2017-Aug-12 18:28N 48°32' W 122°60'0 0.0
2017-Aug-12 17:55N 48°32' W 122°60'0 0.0
2017-Aug-12 17:28N 48°32' W 122°60'0 0.0
2017-Aug-12 16:58N 48°32' W 122°60'0 0.0
2017-Aug-12 16:25N 48°32' W 122°60'0 0.0
2017-Aug-12 15:58N 48°32' W 122°60'0 0.0
2017-Aug-12 15:25N 48°32' W 122°60'0 0.0
2017-Aug-12 14:58N 48°32' W 122°60'0 0.0
2017-Aug-12 14:25N 48°32' W 122°60'0 0.0
2017-Aug-12 13:58N 48°32' W 122°60'0 0.0
2017-Aug-12 13:25N 48°32' W 122°60'0 0.0
2017-Aug-12 12:58N 48°32' W 122°60'0 0.0
2017-Aug-12 12:28N 48°32' W 122°60'0 0.0
2017-Aug-12 11:58N 48°32' W 122°60'0 0.0
2017-Aug-12 11:28N 48°32' W 122°60'0 0.0
2017-Aug-12 10:58N 48°32' W 122°60'0 0.0
2017-Aug-12 10:25N 48°32' W 122°60'0 0.0
2017-Aug-12 09:58N 48°32' W 122°60'0 0.0
2017-Aug-12 09:28N 48°32' W 122°60'0 0.0
2017-Aug-12 08:58N 48°32' W 122°60'0 0.0
2017-Aug-12 08:13N 48°32' W 122°60'0 0.0
2017-Aug-12 07:52N 48°32' W 122°60'0 0.0
2017-Aug-12 07:22N 48°32' W 122°60'0 0.0
2017-Aug-12 06:55N 48°32' W 122°60'0 0.0
2017-Aug-12 06:25N 48°32' W 122°60'0 0.0
2017-Aug-12 05:58N 48°32' W 122°60'0 0.0
2017-Aug-12 05:28N 48°32' W 122°60'0 0.0
2017-Aug-12 04:58N 48°32' W 122°60'0 0.0
2017-Aug-12 04:25N 48°32' W 122°60'0 0.0
2017-Aug-12 03:55N 48°32' W 122°60'0 0.0
2017-Aug-12 03:28N 48°32' W 122°60'0 0.0
2017-Aug-12 02:58N 48°32' W 122°60'0 0.0
2017-Aug-12 02:28N 48°32' W 122°60'0 0.0
2017-Aug-12 01:58N 48°32' W 122°60'0 0.0
2017-Aug-12 01:28N 48°32' W 122°60'0 0.0
2017-Aug-12 00:56N 48°32' W 122°60'0 0.0
2017-Aug-12 00:29N 48°32' W 122°60'0 0.0
2017-Aug-11 23:59N 48°32' W 122°60'0 0.0
2017-Aug-11 23:26N 48°32' W 122°60'0 0.0
2017-Aug-11 22:56N 48°32' W 122°60'0 0.0
2017-Aug-11 22:25N 48°32' W 122°60'0 0.0
2017-Aug-11 21:58N 48°32' W 122°60'0 0.0
2017-Aug-11 21:28N 48°32' W 122°60'0 0.0
2017-Aug-11 20:58N 48°32' W 122°60'0 0.0
2017-Aug-11 20:25N 48°32' W 122°60'0 0.0
2017-Aug-11 19:58N 48°32' W 122°60'0 0.0
2017-Aug-11 19:28N 48°32' W 122°60'0 0.0
2017-Aug-11 18:58N 48°32' W 122°60'0 0.0
2017-Aug-11 18:28N 48°32' W 122°60'0 0.0
2017-Aug-11 17:58N 48°32' W 122°60'0 0.0
2017-Aug-11 17:28N 48°32' W 122°60'0 0.0
2017-Aug-11 16:55N 48°32' W 122°60'0 0.0
2017-Aug-11 16:28N 48°32' W 122°60'0 0.0
2017-Aug-11 15:55N 48°32' W 122°60'0 0.0
2017-Aug-11 15:28N 48°32' W 122°60'0 0.0
2017-Aug-11 14:58N 48°32' W 122°60'0 0.0
2017-Aug-11 14:28N 48°32' W 122°60'0 0.0
2017-Aug-11 13:25N 48°32' W 122°60'0 0.0
2017-Aug-11 12:58N 48°32' W 122°60'0 0.0
2017-Aug-11 12:28N 48°32' W 122°60'0 0.0
2017-Aug-11 11:58N 48°32' W 122°60'0 0.0
2017-Aug-11 11:28N 48°32' W 122°60'0 0.0
2017-Aug-11 10:59N 48°32' W 122°60'0 0.0
2017-Aug-11 10:26N 48°32' W 122°60'0 0.0
2017-Aug-11 09:59N 48°32' W 122°60'0 0.0
2017-Aug-11 09:29N 48°32' W 122°60'0 0.0
2017-Aug-11 08:55N 48°32' W 122°60'0 0.0
2017-Aug-11 08:25N 48°32' W 122°60'0 0.0
2017-Aug-11 07:58N 48°32' W 122°60'0 0.0
2017-Aug-11 07:25N 48°32' W 122°60'0 0.0
2017-Aug-11 06:58N 48°32' W 122°60'0 0.0
2017-Aug-11 06:29N 48°32' W 122°60'0 0.0
2017-Aug-11 05:59N 48°32' W 122°60'0 0.0
2017-Aug-11 05:29N 48°32' W 122°60'0 0.0
2017-Aug-11 04:58N 48°32' W 122°60'0 0.0
2017-Aug-11 04:28N 48°32' W 122°60'0 0.0
2017-Aug-11 03:58N 48°32' W 122°60'0 0.0
2017-Aug-11 03:28N 48°32' W 122°60'0 0.0
2017-Aug-11 02:58N 48°32' W 122°60'0 0.9
2017-Aug-11 02:30N 48°32' W 122°60'1 1.9
2017-Aug-11 01:59N 48°32' W 122°58'0 0.0
2017-Aug-11 01:29N 48°32' W 122°58'0 0.0
2017-Aug-11 00:59N 48°32' W 122°58'1 2.1
2017-Aug-11 00:30N 48°32' W 122°60'0 0.2
2017-Aug-11 00:00N 48°32' W 123°00'1 1.0
2017-Aug-10 23:28N 48°32' W 123°00'0 0.0
2017-Aug-10 22:58N 48°32' W 123°00'1 1.0
2017-Aug-10 22:28N 48°32' W 122°60'0 0.2
2017-Aug-10 21:58N 48°32' W 122°60'0 0.0
2017-Aug-10 21:25N 48°32' W 122°60'0 0.0
2017-Aug-10 20:58N 48°32' W 122°60'0 0.2
2017-Aug-10 20:30N 48°32' W 122°60'3 4.6
2017-Aug-10 19:54N 48°33' W 122°56'2 5.7
2017-Aug-10 19:30N 48°34' W 122°53'2 4.8
2017-Aug-10 19:00N 48°33' W 122°50'2 4.5
2017-Aug-10 18:30N 48°32' W 122°47'3 5.2
2017-Aug-10 18:00N 48°32' W 122°43'5 5.7
2017-Aug-10 17:11N 48°31' W 122°36'0 0.2
2017-Aug-10 15:07N 48°31' W 122°37'5 0.1
2017-Aug-08 14:01N 48°32' W 122°44'1 6.7
2017-Aug-08 13:55N 48°32' W 122°45'3 6.0
2017-Aug-08 13:29N 48°32' W 122°49'3 6.1
2017-Aug-08 13:00N 48°34' W 122°52'2 4.8
2017-Aug-08 12:30N 48°33' W 122°55'3 5.5
2017-Aug-08 12:00N 48°32' W 122°59'1 1.3
2017-Aug-08 11:29N 48°32' W 122°60'0 0.0
2017-Aug-08 10:53N 48°32' W 122°60'0 0.0
2017-Aug-08 10:29N 48°32' W 122°60'0 0.0
2017-Aug-08 09:58N 48°32' W 122°60'0 0.0
2017-Aug-08 09:28N 48°32' W 122°60'0 0.0
2017-Aug-08 08:58N 48°32' W 122°60'0 0.0
2017-Aug-08 08:25N 48°32' W 122°60'0 0.0
2017-Aug-08 07:52N 48°32' W 122°60'0 0.0
2017-Aug-08 07:25N 48°32' W 122°60'0 0.0
2017-Aug-08 06:58N 48°32' W 122°60'0 0.0
2017-Aug-08 06:28N 48°32' W 122°60'0 0.0
2017-Aug-08 05:56N 48°32' W 122°60'0 0.1
2017-Aug-08 05:30N 48°32' W 122°60'0 0.1
2017-Aug-08 05:00N 48°32' W 123°00'1 1.9
2017-Aug-08 04:30N 48°32' W 122°59'3 5.3
2017-Aug-08 04:00N 48°33' W 122°55'3 4.9
2017-Aug-08 03:29N 48°34' W 122°52'3 5.4
2017-Aug-08 02:54N 48°32' W 122°48'2 4.6
2017-Aug-08 02:29N 48°31' W 122°45'2 0.6
2017-Aug-07 23:00N 48°32' W 122°48'3 5.5
2017-Aug-07 22:30N 48°33' W 122°51'3 5.1
2017-Aug-07 22:00N 48°34' W 122°55'3 6.3
2017-Aug-07 21:29N 48°32' W 122°60'1 1.3
2017-Aug-07 21:00N 48°32' W 122°60'2 4.5
2017-Aug-07 20:30N 48°33' W 122°57'2 5.0
2017-Aug-07 20:00N 48°34' W 122°54'2 3.8
2017-Aug-07 19:30N 48°33' W 122°51'2 4.8
2017-Aug-07 19:00N 48°32' W 122°48'2 5.1
2017-Aug-07 18:30N 48°32' W 122°44'0 0.1
2017-Aug-07 15:58N 48°32' W 122°44'3 5.7
2017-Aug-07 15:30N 48°32' W 122°48'3 6.4
2017-Aug-07 15:00N 48°34' W 122°52'2 4.5
2017-Aug-07 14:30N 48°33' W 122°55'3 6.3
2017-Aug-07 13:59N 48°32' W 122°60'0 0.9
2017-Aug-07 13:28N 48°32' W 122°60'0 0.0
2017-Aug-07 12:58N 48°32' W 122°60'0 0.0
2017-Aug-07 12:28N 48°32' W 122°60'0 0.0
2017-Aug-07 11:58N 48°32' W 122°60'0 0.0
2017-Aug-07 11:28N 48°32' W 122°60'0 0.0
2017-Aug-07 10:59N 48°32' W 122°60'0 0.0
2017-Aug-07 10:29N 48°32' W 122°60'0 0.0
2017-Aug-07 09:59N 48°32' W 122°60'0 0.0
2017-Aug-07 09:23N 48°32' W 122°60'0 0.0
2017-Aug-07 08:53N 48°32' W 122°60'0 0.0
2017-Aug-07 08:29N 48°32' W 122°60'0 0.0
2017-Aug-07 07:59N 48°32' W 122°60'0 0.0
2017-Aug-07 07:29N 48°32' W 122°60'0 0.0
2017-Aug-07 06:59N 48°32' W 122°60'0 0.0
2017-Aug-07 06:29N 48°32' W 122°60'0 0.0
2017-Aug-07 05:56N 48°32' W 122°60'0 0.0
2017-Aug-07 05:29N 48°32' W 122°60'0 0.0
2017-Aug-07 04:59N 48°32' W 122°60'0 0.0
2017-Aug-07 04:29N 48°32' W 122°60'0 0.0
2017-Aug-07 03:59N 48°32' W 122°60'0 0.0
2017-Aug-07 03:29N 48°32' W 122°60'0 0.0
2017-Aug-07 02:59N 48°32' W 122°60'0 0.0
2017-Aug-07 02:29N 48°32' W 122°60'0 0.0
2017-Aug-07 01:59N 48°32' W 122°60'0 0.0
2017-Aug-07 01:29N 48°32' W 122°60'0 0.0
2017-Aug-07 00:59N 48°32' W 122°60'0 0.0
2017-Aug-07 00:29N 48°32' W 122°60'0 0.0
2017-Aug-06 23:56N 48°32' W 122°60'0 0.0
2017-Aug-06 23:29N 48°32' W 122°60'0 0.0
2017-Aug-06 22:59N 48°32' W 122°60'0 0.0
2017-Aug-06 22:29N 48°32' W 122°60'0 0.0
2017-Aug-06 21:59N 48°32' W 122°60'0 0.0
2017-Aug-06 21:29N 48°32' W 122°60'0 0.0
2017-Aug-06 20:59N 48°32' W 122°60'0 0.0
2017-Aug-06 20:26N 48°32' W 122°60'0 0.0
2017-Aug-06 19:59N 48°32' W 122°60'  
Track history (hours):
 
Tides and Currents Weather Stations Pressure Air Temp Water Temp Dewpoint Dewpoint Depression Visibility Wind Speed Wind Dir Waves Ship Positions

Pintail

Owner: Pintail Marine Services, Inc, Friday Harbor, WA. More information available from US FCC via Universal Licensing System and Coast Guard Vessel Documentation Center.

Last reported at 2017-Aug-16 19:30 UTC. Time now 2017-Aug-16 19:48 UTC.
Position N 48°34' W 122°53'.

Length 19 m.

Type: Towing. MMSI: 367460260.

Date/timePositionNaut miles runAvg speedWind from/ knotsBaromVisibWave heightAir tempDewpointWater temp
2017-Aug-16 19:30N 48°34' W 122°53'3 5.7
2017-Aug-16 19:00N 48°33' W 122°50'3 5.8
2017-Aug-16 18:29N 48°31' W 122°46'1 0.3
2017-Aug-16 15:59N 48°31' W 122°45'3 5.4
2017-Aug-16 15:25N 48°32' W 122°49'3 5.8
2017-Aug-16 14:54N 48°34' W 122°52'2 5.2
2017-Aug-16 14:30N 48°33' W 122°55'3 5.9
2017-Aug-16 14:00N 48°32' W 122°59'1 1.3
2017-Aug-16 13:28N 48°32' W 122°60'0 0.0
2017-Aug-16 12:58N 48°32' W 122°60'0 0.0
2017-Aug-16 12:28N 48°32' W 122°60'0 0.0
2017-Aug-16 11:58N 48°32' W 122°60'0 0.0
2017-Aug-16 11:28N 48°32' W 122°60'0 0.0
2017-Aug-16 10:58N 48°32' W 122°60'0 0.0
2017-Aug-16 10:28N 48°32' W 122°60'0 0.0
2017-Aug-16 09:58N 48°32' W 122°60'0 0.0
2017-Aug-16 09:28N 48°32' W 122°60'0 0.0
2017-Aug-16 08:58N 48°32' W 122°60'0 0.0
2017-Aug-16 08:25N 48°32' W 122°60'0 0.0
2017-Aug-16 07:58N 48°32' W 122°60'0 0.0
2017-Aug-16 07:28N 48°32' W 122°60'0 0.0
2017-Aug-16 06:55N 48°32' W 122°60'0 0.0
2017-Aug-16 06:28N 48°32' W 122°60'0 0.0
2017-Aug-16 05:58N 48°32' W 122°60'0 0.0
2017-Aug-16 05:28N 48°32' W 122°60'0 0.0
2017-Aug-16 04:58N 48°32' W 122°60'0 0.0
2017-Aug-16 04:28N 48°32' W 122°60'0 0.0
2017-Aug-16 03:55N 48°32' W 122°60'0 0.0
2017-Aug-16 03:28N 48°32' W 122°60'0 0.0
2017-Aug-16 02:58N 48°32' W 122°60'0 0.0
2017-Aug-16 02:28N 48°32' W 122°60'0 0.0
2017-Aug-16 01:58N 48°32' W 122°60'0 0.0
2017-Aug-16 01:28N 48°32' W 122°60'2 0.9
2017-Aug-15 23:12N 48°34' W 123°01'1 4.9
2017-Aug-15 23:00N 48°33' W 123°00'1 2.3
2017-Aug-15 22:30N 48°32' W 123°00'0 0.0
2017-Aug-15 22:00N 48°32' W 123°00'2 3.5
2017-Aug-15 21:29N 48°32' W 122°57'3 5.8
2017-Aug-15 21:00N 48°34' W 122°54'1 2.8
2017-Aug-15 20:30N 48°33' W 122°56'3 5.9
2017-Aug-15 20:00N 48°32' W 122°60'0 0.5
2017-Aug-15 19:28N 48°32' W 122°60'0 0.0
2017-Aug-15 18:58N 48°32' W 122°60'0 0.0
2017-Aug-15 18:28N 48°32' W 122°60'0 0.0
2017-Aug-15 17:55N 48°32' W 122°60'0 0.0
2017-Aug-15 17:28N 48°32' W 122°60'0 0.0
2017-Aug-15 16:58N 48°32' W 122°60'0 0.0
2017-Aug-15 16:30N 48°32' W 122°60'0 0.0
2017-Aug-15 16:00N 48°32' W 122°60'0 0.0
2017-Aug-15 15:31N 48°32' W 122°60'0 0.0
2017-Aug-15 14:58N 48°32' W 122°60'0 0.0
2017-Aug-15 14:24N 48°32' W 122°60'0 0.0
2017-Aug-15 14:01N 48°32' W 122°60'0 0.0
2017-Aug-15 13:31N 48°32' W 122°60'0 0.0
2017-Aug-15 12:58N 48°32' W 122°60'0 0.0
2017-Aug-15 12:31N 48°32' W 122°60'0 0.0
2017-Aug-15 11:58N 48°32' W 122°60'0 0.0
2017-Aug-15 11:31N 48°32' W 122°60'0 0.0
2017-Aug-15 10:58N 48°32' W 122°60'0 0.0
2017-Aug-15 10:28N 48°32' W 122°60'0 0.0
2017-Aug-15 10:01N 48°32' W 122°60'0 0.0
2017-Aug-15 09:28N 48°32' W 122°60'0 0.0
2017-Aug-15 08:58N 48°32' W 122°60'0 0.0
2017-Aug-15 08:28N 48°32' W 122°60'0 0.0
2017-Aug-15 07:58N 48°32' W 122°60'0 0.0
2017-Aug-15 07:22N 48°32' W 122°60'0 0.0
2017-Aug-15 06:58N 48°32' W 122°60'0 0.0
2017-Aug-15 06:28N 48°32' W 122°60'0 0.0
2017-Aug-15 05:58N 48°32' W 122°60'0 0.0
2017-Aug-15 05:28N 48°32' W 122°60'0 0.0
2017-Aug-15 04:58N 48°32' W 122°60'0 0.0
2017-Aug-15 04:28N 48°32' W 122°60'0 0.2
2017-Aug-15 04:00N 48°32' W 122°60'3 5.4
2017-Aug-15 03:30N 48°33' W 122°56'3 5.0
2017-Aug-15 02:54N 48°34' W 122°52'2 5.9
2017-Aug-15 02:30N 48°33' W 122°50'4 6.1
2017-Aug-15 01:54N 48°31' W 122°45'2 0.9
2017-Aug-14 23:20N 48°32' W 122°48'2 5.9
2017-Aug-14 22:59N 48°33' W 122°51'2 5.0
2017-Aug-14 22:30N 48°34' W 122°54'3 5.9
2017-Aug-14 22:00N 48°33' W 122°58'2 3.5
2017-Aug-14 21:30N 48°32' W 123°00'0 0.3
2017-Aug-14 21:00N 48°32' W 122°60'2 4.7
2017-Aug-14 20:30N 48°33' W 122°57'3 6.0
2017-Aug-14 20:01N 48°34' W 122°53'3 5.8
2017-Aug-14 19:30N 48°32' W 122°49'3 5.3
2017-Aug-14 18:59N 48°32' W 122°45'1 0.3
2017-Aug-14 16:24N 48°31' W 122°45'2 5.6
2017-Aug-14 15:59N 48°32' W 122°49'3 5.7
2017-Aug-14 15:30N 48°34' W 122°52'1 2.3
2017-Aug-14 15:00N 48°33' W 122°53'3 5.4
2017-Aug-14 14:30N 48°32' W 122°57'2 4.0
2017-Aug-14 14:00N 48°32' W 123°00'0 0.2
2017-Aug-14 13:28N 48°32' W 122°60'0 0.0
2017-Aug-14 12:58N 48°32' W 122°60'0 0.0
2017-Aug-14 12:28N 48°32' W 122°60'0 0.0
2017-Aug-14 11:58N 48°32' W 122°60'0 0.0
2017-Aug-14 11:28N 48°32' W 122°60'0 0.0
2017-Aug-14 10:55N 48°32' W 122°60'0 0.0
2017-Aug-14 10:28N 48°32' W 122°60'0 0.0
2017-Aug-14 09:58N 48°32' W 122°60'0 0.0
2017-Aug-14 09:28N 48°32' W 122°60'0 0.0
2017-Aug-14 08:58N 48°32' W 122°60'0 0.0
2017-Aug-14 08:28N 48°32' W 122°60'0 0.0
2017-Aug-14 07:55N 48°32' W 122°60'0 0.0
2017-Aug-14 07:25N 48°32' W 122°60'0 0.0
2017-Aug-14 06:58N 48°32' W 122°60'0 0.0
2017-Aug-14 06:28N 48°32' W 122°60'0 0.0
2017-Aug-14 05:58N 48°32' W 122°60'0 0.0
2017-Aug-14 05:25N 48°32' W 122°60'0 0.0
2017-Aug-14 04:58N 48°32' W 122°60'0 0.0
2017-Aug-14 04:25N 48°32' W 122°60'0 0.0
2017-Aug-14 03:58N 48°32' W 122°60'0 0.0
2017-Aug-14 03:25N 48°32' W 122°60'0 0.0
2017-Aug-14 02:55N 48°32' W 122°60'0 0.0
2017-Aug-14 02:28N 48°32' W 122°60'0 0.0
2017-Aug-14 01:58N 48°32' W 122°60'0 0.0
2017-Aug-14 01:28N 48°32' W 122°60'0 0.0
2017-Aug-14 00:58N 48°32' W 122°60'0 0.0
2017-Aug-14 00:28N 48°32' W 122°60'0 0.0
2017-Aug-13 23:58N 48°32' W 122°60'0 0.0
2017-Aug-13 23:28N 48°32' W 122°60'0 0.0
2017-Aug-13 22:58N 48°32' W 122°60'0 0.0
2017-Aug-13 22:25N 48°32' W 122°60'0 0.0
2017-Aug-13 21:58N 48°32' W 122°60'0 0.0
2017-Aug-13 21:28N 48°32' W 122°60'0 0.0
2017-Aug-13 20:58N 48°32' W 122°60'0 0.0
2017-Aug-13 20:28N 48°32' W 122°60'0 0.0
2017-Aug-13 19:55N 48°32' W 122°60'0 0.0
2017-Aug-13 19:30N 48°32' W 122°60'1 1.1
2017-Aug-13 19:00N 48°32' W 122°60'3 2.7
2017-Aug-13 17:53N 48°35' W 123°01'2 5.5
2017-Aug-13 17:29N 48°33' W 123°00'1 2.2
2017-Aug-13 16:52N 48°32' W 122°60'0 0.0
2017-Aug-13 16:28N 48°32' W 122°60'0 0.0
2017-Aug-13 15:58N 48°32' W 122°60'0 0.0
2017-Aug-13 15:28N 48°32' W 122°60'0 0.0
2017-Aug-13 14:58N 48°32' W 122°60'0 0.0
2017-Aug-13 14:28N 48°32' W 122°60'0 0.0
2017-Aug-13 13:58N 48°32' W 122°60'0 0.0
2017-Aug-13 13:28N 48°32' W 122°60'0 0.0
2017-Aug-13 12:58N 48°32' W 122°60'0 0.0
2017-Aug-13 12:28N 48°32' W 122°60'0 0.0
2017-Aug-13 11:55N 48°32' W 122°60'0 0.0
2017-Aug-13 11:28N 48°32' W 122°60'0 0.0
2017-Aug-13 10:58N 48°32' W 122°60'0 0.0
2017-Aug-13 10:25N 48°32' W 122°60'0 0.0
2017-Aug-13 09:58N 48°32' W 122°60'0 0.0
2017-Aug-13 09:28N 48°32' W 122°60'0 0.0
2017-Aug-13 08:55N 48°32' W 122°60'0 0.0
2017-Aug-13 08:28N 48°32' W 122°60'0 0.0
2017-Aug-13 07:58N 48°32' W 122°60'0 0.0
2017-Aug-13 07:28N 48°32' W 122°60'0 0.0
2017-Aug-13 06:58N 48°32' W 122°60'0 0.0
2017-Aug-13 06:22N 48°32' W 122°60'0 0.0
2017-Aug-13 05:58N 48°32' W 122°60'0 0.0
2017-Aug-13 05:28N 48°32' W 122°60'0 0.1
2017-Aug-13 05:00N 48°32' W 122°60'1 2.4
2017-Aug-13 04:30N 48°31' W 122°58'2 3.2
2017-Aug-13 03:59N 48°30' W 123°01'1 2.2
2017-Aug-13 03:30N 48°31' W 122°59'1 2.8
2017-Aug-13 03:00N 48°32' W 122°60'0 0.7
2017-Aug-13 02:28N 48°32' W 122°60'0 0.0
2017-Aug-13 01:58N 48°32' W 122°60'0 0.0
2017-Aug-13 01:28N 48°32' W 122°60'0 0.0
2017-Aug-13 00:58N 48°32' W 122°60'0 0.0
2017-Aug-13 00:28N 48°32' W 122°60'0 0.0
2017-Aug-12 23:55N 48°32' W 122°60'0 0.0
2017-Aug-12 23:25N 48°32' W 122°60'0 0.0
2017-Aug-12 22:58N 48°32' W 122°60'0 0.0
2017-Aug-12 22:28N 48°32' W 122°60'0 0.0
2017-Aug-12 21:58N 48°32' W 122°60'0 0.0
2017-Aug-12 21:25N 48°32' W 122°60'0 0.0
2017-Aug-12 20:58N 48°32' W 122°60'0 0.0
2017-Aug-12 20:28N 48°32' W 122°60'0 0.0
2017-Aug-12 19:58N 48°32' W 122°60'0 0.0
2017-Aug-12 19:25N 48°32' W 122°60'0 0.0
2017-Aug-12 18:58N 48°32' W 122°60'0 0.0
2017-Aug-12 18:28N 48°32' W 122°60'0 0.0
2017-Aug-12 17:55N 48°32' W 122°60'0 0.0
2017-Aug-12 17:28N 48°32' W 122°60'0 0.0
2017-Aug-12 16:58N 48°32' W 122°60'0 0.0
2017-Aug-12 16:25N 48°32' W 122°60'0 0.0
2017-Aug-12 15:58N 48°32' W 122°60'0 0.0
2017-Aug-12 15:25N 48°32' W 122°60'0 0.0
2017-Aug-12 14:58N 48°32' W 122°60'0 0.0
2017-Aug-12 14:25N 48°32' W 122°60'0 0.0
2017-Aug-12 13:58N 48°32' W 122°60'0 0.0
2017-Aug-12 13:25N 48°32' W 122°60'0 0.0
2017-Aug-12 12:58N 48°32' W 122°60'0 0.0
2017-Aug-12 12:28N 48°32' W 122°60'0 0.0
2017-Aug-12 11:58N 48°32' W 122°60'0 0.0
2017-Aug-12 11:28N 48°32' W 122°60'0 0.0
2017-Aug-12 10:58N 48°32' W 122°60'0 0.0
2017-Aug-12 10:25N 48°32' W 122°60'0 0.0
2017-Aug-12 09:58N 48°32' W 122°60'0 0.0
2017-Aug-12 09:28N 48°32' W 122°60'0 0.0
2017-Aug-12 08:58N 48°32' W 122°60'0 0.0
2017-Aug-12 08:13N 48°32' W 122°60'0 0.0
2017-Aug-12 07:52N 48°32' W 122°60'0 0.0
2017-Aug-12 07:22N 48°32' W 122°60'0 0.0
2017-Aug-12 06:55N 48°32' W 122°60'0 0.0
2017-Aug-12 06:25N 48°32' W 122°60'0 0.0
2017-Aug-12 05:58N 48°32' W 122°60'0 0.0
2017-Aug-12 05:28N 48°32' W 122°60'0 0.0
2017-Aug-12 04:58N 48°32' W 122°60'0 0.0
2017-Aug-12 04:25N 48°32' W 122°60'0 0.0
2017-Aug-12 03:55N 48°32' W 122°60'0 0.0
2017-Aug-12 03:28N 48°32' W 122°60'0 0.0
2017-Aug-12 02:58N 48°32' W 122°60'0 0.0
2017-Aug-12 02:28N 48°32' W 122°60'0 0.0
2017-Aug-12 01:58N 48°32' W 122°60'0 0.0
2017-Aug-12 01:28N 48°32' W 122°60'0 0.0
2017-Aug-12 00:56N 48°32' W 122°60'0 0.0
2017-Aug-12 00:29N 48°32' W 122°60'0 0.0
2017-Aug-11 23:59N 48°32' W 122°60'0 0.0
2017-Aug-11 23:26N 48°32' W 122°60'0 0.0
2017-Aug-11 22:56N 48°32' W 122°60'0 0.0
2017-Aug-11 22:25N 48°32' W 122°60'0 0.0
2017-Aug-11 21:58N 48°32' W 122°60'0 0.0
2017-Aug-11 21:28N 48°32' W 122°60'0 0.0
2017-Aug-11 20:58N 48°32' W 122°60'0 0.0
2017-Aug-11 20:25N 48°32' W 122°60'0 0.0
2017-Aug-11 19:58N 48°32' W 122°60'0 0.0
2017-Aug-11 19:28N 48°32' W 122°60'0 0.0
2017-Aug-11 18:58N 48°32' W 122°60'0 0.0
2017-Aug-11 18:28N 48°32' W 122°60'0 0.0
2017-Aug-11 17:58N 48°32' W 122°60'0 0.0
2017-Aug-11 17:28N 48°32' W 122°60'0 0.0
2017-Aug-11 16:55N 48°32' W 122°60'0 0.0
2017-Aug-11 16:28N 48°32' W 122°60'0 0.0
2017-Aug-11 15:55N 48°32' W 122°60'0 0.0
2017-Aug-11 15:28N 48°32' W 122°60'0 0.0
2017-Aug-11 14:58N 48°32' W 122°60'0 0.0
2017-Aug-11 14:28N 48°32' W 122°60'0 0.0
2017-Aug-11 13:25N 48°32' W 122°60'0 0.0
2017-Aug-11 12:58N 48°32' W 122°60'0 0.0
2017-Aug-11 12:28N 48°32' W 122°60'0 0.0
2017-Aug-11 11:58N 48°32' W 122°60'0 0.0
2017-Aug-11 11:28N 48°32' W 122°60'0 0.0
2017-Aug-11 10:59N 48°32' W 122°60'0 0.0
2017-Aug-11 10:26N 48°32' W 122°60'0 0.0
2017-Aug-11 09:59N 48°32' W 122°60'0 0.0
2017-Aug-11 09:29N 48°32' W 122°60'0 0.0
2017-Aug-11 08:55N 48°32' W 122°60'0 0.0
2017-Aug-11 08:25N 48°32' W 122°60'0 0.0
2017-Aug-11 07:58N 48°32' W 122°60'0 0.0
2017-Aug-11 07:25N 48°32' W 122°60'0 0.0
2017-Aug-11 06:58N 48°32' W 122°60'0 0.0
2017-Aug-11 06:29N 48°32' W 122°60'0 0.0
2017-Aug-11 05:59N 48°32' W 122°60'0 0.0
2017-Aug-11 05:29N 48°32' W 122°60'0 0.0
2017-Aug-11 04:58N 48°32' W 122°60'0 0.0
2017-Aug-11 04:28N 48°32' W 122°60'0 0.0
2017-Aug-11 03:58N 48°32' W 122°60'0 0.0
2017-Aug-11 03:28N 48°32' W 122°60'0 0.0
2017-Aug-11 02:58N 48°32' W 122°60'0 0.9
2017-Aug-11 02:30N 48°32' W 122°60'1 1.9
2017-Aug-11 01:59N 48°32' W 122°58'0 0.0
2017-Aug-11 01:29N 48°32' W 122°58'0 0.0
2017-Aug-11 00:59N 48°32' W 122°58'1 2.1
2017-Aug-11 00:30N 48°32' W 122°60'0 0.2
2017-Aug-11 00:00N 48°32' W 123°00'1 1.0
2017-Aug-10 23:28N 48°32' W 123°00'0 0.0
2017-Aug-10 22:58N 48°32' W 123°00'1 1.0
2017-Aug-10 22:28N 48°32' W 122°60'0 0.2
2017-Aug-10 21:58N 48°32' W 122°60'0 0.0
2017-Aug-10 21:25N 48°32' W 122°60'0 0.0
2017-Aug-10 20:58N 48°32' W 122°60'0 0.2
2017-Aug-10 20:30N 48°32' W 122°60'3 4.6
2017-Aug-10 19:54N 48°33' W 122°56'2 5.7
2017-Aug-10 19:30N 48°34' W 122°53'2 4.8
2017-Aug-10 19:00N 48°33' W 122°50'2 4.5
2017-Aug-10 18:30N 48°32' W 122°47'3 5.2
2017-Aug-10 18:00N 48°32' W 122°43'5 5.7
2017-Aug-10 17:11N 48°31' W 122°36'0 0.2
2017-Aug-10 15:07N 48°31' W 122°37'5 0.1
2017-Aug-08 14:01N 48°32' W 122°44'1 6.7
2017-Aug-08 13:55N 48°32' W 122°45'3 6.0
2017-Aug-08 13:29N 48°32' W 122°49'3 6.1
2017-Aug-08 13:00N 48°34' W 122°52'2 4.8
2017-Aug-08 12:30N 48°33' W 122°55'3 5.5
2017-Aug-08 12:00N 48°32' W 122°59'1 1.3
2017-Aug-08 11:29N 48°32' W 122°60'0 0.0
2017-Aug-08 10:53N 48°32' W 122°60'0 0.0
2017-Aug-08 10:29N 48°32' W 122°60'0 0.0
2017-Aug-08 09:58N 48°32' W 122°60'0 0.0
2017-Aug-08 09:28N 48°32' W 122°60'0 0.0
2017-Aug-08 08:58N 48°32' W 122°60'0 0.0
2017-Aug-08 08:25N 48°32' W 122°60'0 0.0
2017-Aug-08 07:52N 48°32' W 122°60'0 0.0
2017-Aug-08 07:25N 48°32' W 122°60'0 0.0
2017-Aug-08 06:58N 48°32' W 122°60'0 0.0
2017-Aug-08 06:28N 48°32' W 122°60'0 0.0
2017-Aug-08 05:56N 48°32' W 122°60'0 0.1
2017-Aug-08 05:30N 48°32' W 122°60'0 0.1
2017-Aug-08 05:00N 48°32' W 123°00'1 1.9
2017-Aug-08 04:30N 48°32' W 122°59'3 5.3
2017-Aug-08 04:00N 48°33' W 122°55'3 4.9
2017-Aug-08 03:29N 48°34' W 122°52'3 5.4
2017-Aug-08 02:54N 48°32' W 122°48'2 4.6
2017-Aug-08 02:29N 48°31' W 122°45'2 0.6
2017-Aug-07 23:00N 48°32' W 122°48'3 5.5
2017-Aug-07 22:30N 48°33' W 122°51'3 5.1
2017-Aug-07 22:00N 48°34' W 122°55'3 6.3
2017-Aug-07 21:29N 48°32' W 122°60'1 1.3
2017-Aug-07 21:00N 48°32' W 122°60'2 4.5
2017-Aug-07 20:30N 48°33' W 122°57'2 5.0
2017-Aug-07 20:00N 48°34' W 122°54'2 3.8
2017-Aug-07 19:30N 48°33' W 122°51'2 4.8
2017-Aug-07 19:00N 48°32' W 122°48'2 5.1
2017-Aug-07 18:30N 48°32' W 122°44'0 0.1
2017-Aug-07 15:58N 48°32' W 122°44'3 5.7
2017-Aug-07 15:30N 48°32' W 122°48'3 6.4
2017-Aug-07 15:00N 48°34' W 122°52'2 4.5
2017-Aug-07 14:30N 48°33' W 122°55'3 6.3
2017-Aug-07 13:59N 48°32' W 122°60'0 0.9
2017-Aug-07 13:28N 48°32' W 122°60'0 0.0
2017-Aug-07 12:58N 48°32' W 122°60'0 0.0
2017-Aug-07 12:28N 48°32' W 122°60'0 0.0
2017-Aug-07 11:58N 48°32' W 122°60'0 0.0
2017-Aug-07 11:28N 48°32' W 122°60'0 0.0
2017-Aug-07 10:59N 48°32' W 122°60'0 0.0
2017-Aug-07 10:29N 48°32' W 122°60'0 0.0
2017-Aug-07 09:59N 48°32' W 122°60'0 0.0
2017-Aug-07 09:23N 48°32' W 122°60'0 0.0
2017-Aug-07 08:53N 48°32' W 122°60'0 0.0
2017-Aug-07 08:29N 48°32' W 122°60'0 0.0
2017-Aug-07 07:59N 48°32' W 122°60'0 0.0
2017-Aug-07 07:29N 48°32' W 122°60'0 0.0
2017-Aug-07 06:59N 48°32' W 122°60'0 0.0
2017-Aug-07 06:29N 48°32' W 122°60'0 0.0
2017-Aug-07 05:56N 48°32' W 122°60'0 0.0
2017-Aug-07 05:29N 48°32' W 122°60'0 0.0
2017-Aug-07 04:59N 48°32' W 122°60'0 0.0
2017-Aug-07 04:29N 48°32' W 122°60'0 0.0
2017-Aug-07 03:59N 48°32' W 122°60'0 0.0
2017-Aug-07 03:29N 48°32' W 122°60'0 0.0
2017-Aug-07 02:59N 48°32' W 122°60'0 0.0
2017-Aug-07 02:29N 48°32' W 122°60'0 0.0
2017-Aug-07 01:59N 48°32' W 122°60'0 0.0
2017-Aug-07 01:29N 48°32' W 122°60'0 0.0
2017-Aug-07 00:59N 48°32' W 122°60'0 0.0
2017-Aug-07 00:29N 48°32' W 122°60'0 0.0
2017-Aug-06 23:56N 48°32' W 122°60'0 0.0
2017-Aug-06 23:29N 48°32' W 122°60'0 0.0
2017-Aug-06 22:59N 48°32' W 122°60'0 0.0
2017-Aug-06 22:29N 48°32' W 122°60'0 0.0
2017-Aug-06 21:59N 48°32' W 122°60'0 0.0
2017-Aug-06 21:29N 48°32' W 122°60'0 0.0
2017-Aug-06 20:59N 48°32' W 122°60'0 0.0
2017-Aug-06 20:26N 48°32' W 122°60'0 0.0
2017-Aug-06 19:59N 48°32' W 122°60'  

Dump ship's entire track history